createdAt,value
2018-11-06T00:01:59.304Z,94.10
2018-11-06T00:04:33.212Z,94.10
2018-11-06T00:07:01.855Z,94.20
2018-11-06T00:09:30.430Z,94.20
2018-11-06T00:11:59.004Z,94.20
2018-11-06T00:14:27.559Z,94.00
2018-11-06T00:16:56.165Z,94.00
2018-11-06T00:19:24.725Z,94.00
2018-11-06T00:21:53.391Z,94.00
2018-11-06T00:24:22.797Z,93.90
2018-11-06T00:26:51.401Z,94.00
2018-11-06T00:29:19.956Z,94.00
2018-11-06T00:31:48.723Z,94.10
2018-11-06T00:34:17.353Z,94.10
2018-11-06T00:36:45.946Z,94.10
2018-11-06T00:39:14.511Z,94.00
2018-11-06T00:41:43.108Z,94.00
2018-11-06T00:44:11.682Z,93.90
2018-11-06T00:46:40.307Z,93.80
2018-11-06T00:49:08.871Z,93.80
2018-11-06T00:51:37.503Z,93.90
2018-11-06T00:54:06.959Z,93.90
2018-11-06T00:56:35.626Z,94.00
2018-11-06T00:59:04.316Z,94.00
2018-11-06T01:01:32.947Z,94.00
2018-11-06T01:04:07.410Z,94.10
2018-11-06T01:06:36.367Z,94.00
2018-11-06T01:09:06.363Z,94.10
2018-11-06T01:11:35.018Z,94.00
2018-11-06T01:14:03.617Z,94.00
2018-11-06T01:16:32.191Z,94.10
2018-11-06T01:19:00.740Z,94.00
2018-11-06T01:21:29.356Z,94.10
2018-11-06T01:23:57.937Z,94.10
2018-11-06T01:26:26.596Z,93.90
2018-11-06T01:28:55.402Z,93.80
2018-11-06T01:31:23.999Z,94.00
2018-11-06T01:33:52.597Z,94.10
2018-11-06T01:36:21.203Z,94.30
2018-11-06T01:38:49.812Z,94.20
2018-11-06T01:41:18.530Z,94.10
2018-11-06T01:43:47.091Z,94.10
2018-11-06T01:46:15.776Z,94.00
2018-11-06T01:48:44.346Z,93.90
2018-11-06T01:51:12.965Z,94.50
2018-11-06T01:53:41.541Z,94.50
2018-11-06T01:56:10.864Z,94.30
2018-11-06T01:58:39.461Z,94.30
2018-11-06T02:01:08.071Z,94.40
2018-11-06T02:03:36.691Z,94.90
2018-11-06T02:06:05.997Z,94.70
2018-11-06T02:08:34.843Z,94.80
2018-11-06T02:11:03.916Z,94.80
2018-11-06T02:13:32.478Z,94.80
2018-11-06T02:16:01.092Z,94.70
2018-11-06T02:18:29.702Z,94.60
2018-11-06T02:20:58.274Z,94.40
2018-11-06T02:23:26.911Z,94.40
2018-11-06T02:25:55.617Z,94.50
2018-11-06T02:28:24.335Z,94.50
2018-11-06T02:30:52.982Z,94.60
2018-11-06T02:33:21.639Z,94.50
2018-11-06T02:35:50.276Z,94.60
2018-11-06T02:38:18.892Z,94.30
2018-11-06T02:40:47.473Z,94.30
2018-11-06T02:43:16.185Z,94.60
2018-11-06T02:45:44.824Z,94.50
2018-11-06T02:48:13.540Z,94.60
2018-11-06T02:50:42.204Z,94.50
2018-11-06T02:53:10.808Z,94.70
2018-11-06T02:55:39.393Z,94.70
2018-11-06T02:58:08.018Z,94.40
2018-11-06T03:00:36.597Z,94.50
2018-11-06T03:03:05.600Z,94.50
2018-11-06T03:05:34.183Z,94.50
2018-11-06T03:08:02.849Z,94.50
2018-11-06T03:10:31.456Z,94.50
2018-11-06T03:13:00.014Z,94.40
2018-11-06T03:15:28.562Z,94.40
2018-11-06T03:17:57.117Z,94.50
2018-11-06T03:20:25.699Z,94.40
2018-11-06T03:22:54.259Z,94.40
2018-11-06T03:25:22.814Z,94.40
2018-11-06T03:27:51.433Z,94.70
2018-11-06T03:30:19.976Z,94.70
2018-11-06T03:32:48.528Z,94.40
2018-11-06T03:35:17.067Z,94.60
2018-11-06T03:37:45.628Z,94.60
2018-11-06T03:40:14.254Z,94.50
2018-11-06T03:42:43.483Z,94.50
2018-11-06T03:45:12.870Z,94.50
2018-11-06T03:47:41.415Z,94.50
2018-11-06T03:50:11.573Z,94.60
2018-11-06T03:52:40.168Z,94.50
2018-11-06T03:55:09.048Z,94.40
2018-11-06T03:57:37.662Z,94.50
2018-11-06T04:00:08.538Z,94.60
2018-11-06T04:02:37.108Z,94.40
2018-11-06T04:05:06.233Z,94.90
2018-11-06T04:07:34.870Z,94.60
2018-11-06T04:10:03.884Z,94.60
2018-11-06T04:12:32.465Z,94.60
2018-11-06T04:15:01.038Z,94.60
2018-11-06T04:17:29.606Z,94.50
2018-11-06T04:19:58.154Z,94.40
2018-11-06T04:22:26.693Z,94.40
2018-11-06T04:24:55.271Z,94.40
2018-11-06T04:27:23.831Z,94.40
2018-11-06T04:29:52.347Z,94.40
2018-11-06T04:32:20.879Z,94.50
2018-11-06T04:34:49.428Z,94.50
2018-11-06T04:37:17.957Z,94.50
2018-11-06T04:39:46.511Z,94.40
2018-11-06T04:42:15.049Z,94.30
2018-11-06T04:44:43.653Z,94.50
2018-11-06T04:47:12.203Z,94.40
2018-11-06T04:49:40.850Z,94.40
2018-11-06T04:52:09.363Z,94.60
2018-11-06T04:54:37.918Z,94.60
2018-11-06T04:57:06.482Z,94.60
2018-11-06T04:59:35.073Z,94.70
2018-11-06T05:02:03.710Z,94.60
2018-11-06T05:04:32.230Z,94.70
2018-11-06T05:07:00.897Z,94.60
2018-11-06T05:09:29.381Z,94.60
2018-11-06T05:11:58.000Z,94.90
2018-11-06T05:14:26.561Z,94.50
2018-11-06T05:16:55.110Z,94.50
2018-11-06T05:19:23.684Z,94.60
2018-11-06T05:21:52.210Z,94.50
2018-11-06T05:24:20.794Z,94.60
2018-11-06T05:26:49.331Z,94.40
2018-11-06T05:29:18.167Z,94.60
2018-11-06T05:31:46.734Z,94.50
2018-11-06T05:34:15.291Z,94.60
2018-11-06T05:36:43.902Z,94.60
2018-11-06T05:39:13.726Z,94.60
2018-11-06T05:41:42.247Z,94.70
2018-11-06T05:44:10.974Z,94.70
2018-11-06T05:46:39.503Z,94.70
2018-11-06T05:49:08.177Z,94.70
2018-11-06T05:51:36.733Z,94.70
2018-11-06T05:54:06.029Z,94.60
2018-11-06T05:56:34.601Z,94.60
2018-11-06T05:59:03.203Z,94.10
2018-11-06T06:01:31.786Z,94.10
2018-11-06T06:04:00.365Z,94.20
2018-11-06T06:06:29.313Z,94.00
2018-11-06T06:08:57.897Z,94.20
2018-11-06T06:11:26.818Z,94.20
2018-11-06T06:13:55.434Z,94.10
2018-11-06T06:16:24.038Z,94.10
2018-11-06T06:18:52.637Z,94.10
2018-11-06T06:21:21.230Z,94.10
2018-11-06T06:23:49.775Z,94.10
2018-11-06T06:26:18.408Z,94.20
2018-11-06T06:28:47.042Z,94.40
2018-11-06T06:31:15.640Z,94.10
2018-11-06T06:33:44.247Z,94.10
2018-11-06T06:36:12.872Z,94.00
2018-11-06T06:38:41.485Z,94.00
2018-11-06T06:41:10.096Z,94.20
2018-11-06T06:43:38.684Z,94.10
2018-11-06T06:46:07.360Z,94.20
2018-11-06T06:48:35.952Z,94.20
2018-11-06T06:51:05.290Z,94.20
2018-11-06T06:53:33.874Z,94.10
2018-11-06T06:56:02.497Z,94.20
2018-11-06T06:58:31.057Z,94.20
2018-11-06T07:00:59.692Z,94.30
2018-11-06T07:03:34.821Z,94.20
2018-11-06T07:06:03.421Z,94.30
2018-11-06T07:08:32.038Z,94.30
2018-11-06T07:11:00.609Z,94.30
2018-11-06T07:13:29.165Z,94.30
2018-11-06T07:15:57.776Z,94.40
2018-11-06T07:18:26.420Z,94.30
2018-11-06T07:20:55.005Z,94.20
2018-11-06T07:23:23.600Z,94.10
2018-11-06T07:25:52.146Z,94.10
2018-11-06T07:28:20.703Z,93.90
2018-11-06T07:30:49.305Z,93.80
2018-11-06T07:33:17.903Z,93.90
2018-11-06T07:35:46.712Z,94.00
2018-11-06T07:38:15.039Z,93.90
2018-11-06T07:40:43.979Z,93.90
2018-11-06T07:43:12.520Z,93.80
2018-11-06T07:45:41.069Z,93.80
2018-11-06T07:48:09.574Z,93.70
2018-11-06T07:50:39.909Z,93.60
2018-11-06T07:53:08.444Z,93.70
2018-11-06T07:55:37.042Z,93.50
2018-11-06T07:58:05.854Z,93.40
2018-11-06T08:00:34.442Z,93.30
2018-11-06T08:03:03.005Z,93.40
2018-11-06T08:05:31.592Z,93.40
2018-11-06T08:08:00.100Z,93.50
2018-11-06T08:10:29.484Z,93.50
2018-11-06T08:12:58.012Z,93.50
2018-11-06T08:15:26.588Z,93.80
2018-11-06T08:17:55.271Z,93.40
2018-11-06T08:20:23.895Z,93.20
2018-11-06T08:22:52.463Z,93.20
2018-11-06T08:25:21.027Z,93.20
2018-11-06T08:27:49.616Z,93.30
2018-11-06T08:30:18.193Z,93.20
2018-11-06T08:32:46.996Z,93.20
2018-11-06T08:35:17.092Z,93.10
2018-11-06T08:37:45.628Z,93.00
2018-11-06T08:40:15.418Z,93.10
2018-11-06T08:42:44.071Z,93.10
2018-11-06T08:45:13.857Z,93.00
2018-11-06T08:47:43.446Z,92.90
2018-11-06T08:50:13.385Z,93.10
2018-11-06T08:52:42.148Z,92.80
2018-11-06T08:55:12.131Z,92.80
2018-11-06T08:57:41.489Z,92.80
2018-11-06T09:00:13.229Z,92.80
2018-11-06T09:02:42.341Z,93.00
2018-11-06T09:05:12.422Z,92.70
2018-11-06T09:07:40.991Z,92.60
2018-11-06T09:10:11.001Z,92.40
2018-11-06T09:12:40.116Z,92.40
2018-11-06T09:15:10.430Z,92.40
2018-11-06T09:17:39.312Z,92.30
2018-11-06T09:20:09.016Z,92.30
2018-11-06T09:22:37.634Z,92.20
2018-11-06T09:25:07.513Z,92.10
2018-11-06T09:27:36.083Z,92.00
2018-11-06T09:30:05.153Z,92.00
2018-11-06T09:32:33.710Z,92.00
2018-11-06T09:35:02.284Z,91.80
2018-11-06T09:37:30.873Z,91.70
2018-11-06T09:39:59.435Z,91.50
2018-11-06T09:42:28.006Z,91.50
2018-11-06T09:44:56.596Z,91.60
2018-11-06T09:47:25.198Z,91.50
2018-11-06T09:49:53.737Z,91.60
2018-11-06T09:52:22.289Z,91.50
2018-11-06T09:54:51.458Z,91.50
2018-11-06T09:57:19.977Z,91.50
2018-11-06T09:59:48.528Z,91.50
2018-11-06T10:02:17.694Z,91.30
2018-11-06T10:04:46.218Z,91.30
2018-11-06T10:07:15.137Z,91.10
2018-11-06T10:09:43.316Z,91.00
2018-11-06T10:12:11.891Z,91.00
2018-11-06T10:14:40.680Z,91.00
2018-11-06T10:17:09.424Z,91.10
2018-11-06T10:19:38.116Z,91.10
2018-11-06T10:22:07.040Z,91.30
2018-11-06T10:24:35.840Z,91.40
2018-11-06T10:27:04.629Z,91.30
2018-11-06T10:29:33.183Z,91.40
2018-11-06T10:32:01.749Z,91.50
2018-11-06T10:34:30.568Z,91.60
2018-11-06T10:36:59.230Z,91.50
2018-11-06T10:39:28.139Z,91.70
2018-11-06T10:41:56.751Z,91.20
2018-11-06T10:44:25.848Z,91.20
2018-11-06T10:46:54.682Z,91.00
2018-11-06T10:49:23.232Z,90.70
2018-11-06T10:51:52.219Z,90.40
2018-11-06T10:54:20.830Z,90.50
2018-11-06T10:56:49.431Z,90.60
2018-11-06T10:59:17.998Z,90.60
2018-11-06T11:01:52.024Z,90.50
2018-11-06T11:04:22.789Z,90.60
2018-11-06T11:06:51.457Z,90.80
2018-11-06T11:09:21.140Z,90.80
2018-11-06T11:11:50.330Z,90.70
2018-11-06T11:14:18.879Z,90.90
2018-11-06T11:16:47.431Z,91.00
2018-11-06T11:19:15.975Z,90.90
2018-11-06T11:21:44.514Z,90.90
2018-11-06T11:24:13.202Z,90.90
2018-11-06T11:26:42.021Z,90.80
2018-11-06T11:29:10.587Z,90.60
2018-11-06T11:31:39.131Z,90.60
2018-11-06T11:34:07.736Z,91.00
2018-11-06T11:36:36.317Z,90.80
2018-11-06T11:39:06.975Z,90.70
2018-11-06T11:41:35.672Z,90.60
2018-11-06T11:44:05.169Z,90.90
2018-11-06T11:46:33.953Z,90.70
2018-11-06T11:49:02.601Z,90.70
2018-11-06T11:51:31.293Z,90.50
2018-11-06T11:54:00.271Z,90.30
2018-11-06T11:56:29.213Z,90.10
2018-11-06T11:58:57.871Z,90.10
2018-11-06T12:01:26.691Z,90.10
2018-11-06T12:03:55.280Z,90.20
2018-11-06T12:06:24.557Z,90.20
2018-11-06T12:08:53.184Z,90.40
2018-11-06T12:11:21.794Z,90.40
2018-11-06T12:13:50.428Z,90.50
2018-11-06T12:16:19.492Z,90.60
2018-11-06T12:18:48.019Z,90.70
2018-11-06T12:21:16.587Z,90.70
2018-11-06T12:23:45.188Z,90.70
2018-11-06T12:26:13.834Z,90.70
2018-11-06T12:28:42.399Z,90.60
2018-11-06T12:31:11.030Z,90.60
2018-11-06T12:33:39.620Z,90.50
2018-11-06T12:36:08.133Z,90.50
2018-11-06T12:38:36.902Z,90.50
2018-11-06T12:41:05.924Z,90.60
2018-11-06T12:43:34.516Z,90.80
2018-11-06T12:46:03.043Z,90.80
2018-11-06T12:48:31.638Z,90.90
2018-11-06T12:51:00.240Z,91.10
2018-11-06T12:53:28.790Z,91.20
2018-11-06T12:55:57.505Z,91.10
2018-11-06T12:58:26.239Z,91.20
2018-11-06T13:00:54.819Z,91.20
2018-11-06T13:03:23.366Z,91.10
2018-11-06T13:05:51.896Z,91.10
2018-11-06T13:08:20.651Z,91.10
2018-11-06T13:10:49.297Z,91.10
2018-11-06T13:13:17.978Z,91.00
2018-11-06T13:15:46.610Z,90.80
2018-11-06T13:18:15.285Z,91.00
2018-11-06T13:20:44.044Z,90.70
2018-11-06T13:23:12.741Z,90.80
2018-11-06T13:25:41.388Z,90.90
2018-11-06T13:28:09.849Z,90.90
2018-11-06T13:30:38.390Z,91.00
2018-11-06T13:33:07.001Z,91.00
2018-11-06T13:35:35.524Z,91.10
2018-11-06T13:38:04.086Z,91.00
2018-11-06T13:40:32.683Z,91.10
2018-11-06T13:43:01.306Z,91.10
2018-11-06T13:45:30.090Z,91.10
2018-11-06T13:47:58.593Z,91.30
2018-11-06T13:50:28.438Z,91.70
2018-11-06T13:52:58.051Z,91.80
2018-11-06T13:55:26.657Z,91.70
2018-11-06T13:57:55.256Z,91.80
2018-11-06T14:00:24.194Z,92.10
2018-11-06T14:02:52.796Z,92.70
2018-11-06T14:05:21.368Z,92.50
2018-11-06T14:07:50.362Z,92.50
2018-11-06T14:10:18.903Z,92.70
2018-11-06T14:12:47.573Z,92.60
2018-11-06T14:15:16.143Z,92.70
2018-11-06T14:17:44.702Z,92.70
2018-11-06T14:20:14.561Z,92.80
2018-11-06T14:22:43.482Z,93.10
2018-11-06T14:25:12.056Z,92.90
2018-11-06T14:27:40.770Z,92.90
2018-11-06T14:30:12.221Z,93.10
2018-11-06T14:32:40.774Z,92.90
2018-11-06T14:35:11.998Z,92.80
2018-11-06T14:37:41.514Z,92.70
2018-11-06T14:40:11.597Z,93.10
2018-11-06T14:42:40.948Z,92.80
2018-11-06T14:45:11.368Z,92.80
2018-11-06T14:47:40.784Z,92.80
2018-11-06T14:50:10.841Z,93.00
2018-11-06T14:52:40.271Z,93.00
2018-11-06T14:55:11.145Z,93.00
2018-11-06T14:57:40.963Z,93.30
2018-11-06T15:00:14.695Z,93.20
2018-11-06T15:02:45.564Z,93.00
2018-11-06T15:05:15.415Z,93.20
2018-11-06T15:07:45.628Z,93.20
2018-11-06T15:10:15.172Z,93.20
2018-11-06T15:12:45.244Z,93.40
2018-11-06T15:15:16.191Z,93.20
2018-11-06T15:17:46.514Z,93.40
2018-11-06T15:20:17.252Z,93.50
2018-11-06T15:22:46.839Z,93.10
2018-11-06T15:25:17.495Z,93.10
2018-11-06T15:27:47.024Z,93.00
2018-11-06T15:30:16.795Z,93.00
2018-11-06T15:32:45.399Z,92.90
2018-11-06T15:35:16.666Z,92.90
2018-11-06T15:37:45.233Z,93.20
2018-11-06T15:40:16.543Z,92.90
2018-11-06T15:42:45.325Z,92.80
2018-11-06T15:45:16.088Z,92.80
2018-11-06T15:47:45.474Z,92.80
2018-11-06T15:50:15.326Z,92.90
2018-11-06T15:52:44.928Z,92.80
2018-11-06T15:55:13.513Z,92.80
2018-11-06T15:57:42.163Z,92.80
2018-11-06T16:00:15.126Z,92.80
2018-11-06T16:02:44.191Z,92.90
2018-11-06T16:05:13.159Z,92.90
2018-11-06T16:07:41.778Z,92.80
2018-11-06T16:10:13.112Z,92.90
2018-11-06T16:12:42.236Z,92.80
2018-11-06T16:15:10.867Z,93.00
2018-11-06T16:17:39.635Z,93.10
2018-11-06T16:20:10.675Z,93.00
2018-11-06T16:22:39.559Z,93.00
2018-11-06T16:25:10.263Z,93.10
2018-11-06T16:27:39.495Z,93.10
2018-11-06T16:30:10.280Z,93.30
2018-11-06T16:32:39.069Z,93.40
2018-11-06T16:35:09.099Z,93.40
2018-11-06T16:37:37.969Z,93.30
2018-11-06T16:40:07.196Z,93.50
2018-11-06T16:42:36.019Z,93.90
2018-11-06T16:45:05.765Z,93.40
2018-11-06T16:47:34.467Z,94.20
2018-11-06T16:50:03.319Z,93.80
2018-11-06T16:52:31.843Z,93.90
2018-11-06T16:55:00.397Z,94.00
2018-11-06T16:57:28.965Z,93.90
2018-11-06T16:59:57.650Z,93.90
2018-11-06T17:02:26.104Z,94.00
2018-11-06T17:04:54.705Z,94.10
2018-11-06T17:07:23.353Z,94.30
2018-11-06T17:09:51.983Z,94.30
2018-11-06T17:12:20.739Z,94.50
2018-11-06T17:14:49.381Z,94.40
2018-11-06T17:17:18.114Z,94.20
2018-11-06T17:19:47.044Z,94.20
2018-11-06T17:22:15.627Z,94.70
2018-11-06T17:24:44.172Z,94.50
2018-11-06T17:27:12.740Z,94.60
2018-11-06T17:29:41.337Z,94.60
2018-11-06T17:32:09.896Z,94.70
2018-11-06T17:34:38.503Z,94.70
2018-11-06T17:37:07.141Z,94.70
2018-11-06T17:39:35.873Z,94.80
2018-11-06T17:42:04.466Z,94.70
2018-11-06T17:44:33.025Z,94.70
2018-11-06T17:47:02.290Z,94.70
2018-11-06T17:49:30.874Z,94.70
2018-11-06T17:51:59.901Z,94.50
2018-11-06T17:54:28.817Z,94.40
2018-11-06T17:56:57.364Z,94.40
2018-11-06T17:59:26.032Z,94.30
2018-11-06T18:01:54.603Z,94.30
2018-11-06T18:04:23.365Z,94.20
2018-11-06T18:06:51.839Z,94.30
2018-11-06T18:09:20.383Z,94.40
2018-11-06T18:11:49.029Z,94.50
2018-11-06T18:14:18.474Z,94.50
2018-11-06T18:16:47.097Z,94.50
2018-11-06T18:19:15.627Z,94.50
2018-11-06T18:21:44.271Z,94.30
2018-11-06T18:24:12.899Z,94.30
2018-11-06T18:26:41.617Z,94.40
2018-11-06T18:29:10.291Z,94.50
2018-11-06T18:31:39.027Z,94.40
2018-11-06T18:34:07.499Z,94.40
2018-11-06T18:36:36.060Z,94.50
2018-11-06T18:39:07.385Z,94.20
2018-11-06T18:41:36.390Z,94.30
2018-11-06T18:44:06.970Z,94.00
2018-11-06T18:46:35.782Z,93.70
2018-11-06T18:49:04.907Z,93.50
2018-11-06T18:51:33.597Z,93.40
2018-11-06T18:54:02.573Z,93.40
2018-11-06T18:56:31.134Z,93.40
2018-11-06T18:58:59.639Z,93.30
2018-11-06T19:01:28.209Z,93.50
2018-11-06T19:03:56.926Z,93.60
2018-11-06T19:06:25.751Z,93.60
2018-11-06T19:08:54.339Z,93.40
2018-11-06T19:11:22.919Z,93.40
2018-11-06T19:13:51.466Z,93.30
2018-11-06T19:16:20.056Z,93.10
2018-11-06T19:18:48.615Z,93.00
2018-11-06T19:21:17.174Z,93.00
2018-11-06T19:23:45.716Z,93.10
2018-11-06T19:26:14.300Z,93.10
2018-11-06T19:28:42.912Z,93.00
2018-11-06T19:31:11.540Z,93.00
2018-11-06T19:33:40.068Z,92.90
2018-11-06T19:36:08.668Z,92.90
2018-11-06T19:38:37.193Z,93.40
2018-11-06T19:41:06.263Z,93.60
2018-11-06T19:43:34.791Z,93.90
2018-11-06T19:46:03.687Z,94.20
2018-11-06T19:48:32.781Z,94.00
2018-11-06T19:51:01.356Z,93.60
2018-11-06T19:53:30.009Z,93.40
2018-11-06T19:55:58.567Z,93.30
2018-11-06T19:58:27.110Z,93.30
2018-11-06T20:00:55.819Z,93.30
2018-11-06T20:03:24.582Z,93.40
2018-11-06T20:05:53.261Z,93.60
2018-11-06T20:08:21.755Z,93.70
2018-11-06T20:10:50.403Z,93.80
2018-11-06T20:13:18.925Z,94.00
2018-11-06T20:15:47.606Z,94.20
2018-11-06T20:18:16.131Z,94.20
2018-11-06T20:20:44.789Z,94.10
2018-11-06T20:23:14.391Z,94.10
2018-11-06T20:25:42.980Z,94.10
2018-11-06T20:28:11.543Z,94.20
2018-11-06T20:30:40.864Z,94.70
2018-11-06T20:33:09.538Z,94.50
2018-11-06T20:35:38.411Z,94.30
2018-11-06T20:38:07.308Z,94.50
2018-11-06T20:40:36.097Z,94.60
2018-11-06T20:43:04.991Z,94.60
2018-11-06T20:45:34.161Z,94.40
2018-11-06T20:48:03.084Z,94.50
2018-11-06T20:50:31.646Z,94.80
2018-11-06T20:53:00.292Z,95.10
2018-11-06T20:55:29.080Z,95.60
2018-11-06T20:57:58.044Z,95.50
2018-11-06T21:00:30.257Z,95.40
2018-11-06T21:03:01.139Z,95.60
2018-11-06T21:05:29.703Z,95.30
2018-11-06T21:07:58.574Z,95.00
2018-11-06T21:10:29.173Z,94.80
2018-11-06T21:12:57.974Z,94.70
2018-11-06T21:15:26.550Z,94.60
2018-11-06T21:17:55.437Z,94.50
2018-11-06T21:20:24.016Z,94.50
2018-11-06T21:22:52.591Z,94.70
2018-11-06T21:25:21.419Z,94.90
2018-11-06T21:27:49.979Z,95.00
2018-11-06T21:30:20.037Z,95.20
2018-11-06T21:32:49.895Z,95.50
2018-11-06T21:35:18.648Z,96.00
2018-11-06T21:37:47.922Z,96.10
2018-11-06T21:40:17.747Z,96.10
2018-11-06T21:42:46.902Z,96.20
2018-11-06T21:45:16.133Z,96.30
2018-11-06T21:47:45.417Z,96.60
2018-11-06T21:50:14.802Z,96.20
2018-11-06T21:52:43.445Z,96.00
2018-11-06T21:55:13.397Z,95.80
2018-11-06T21:57:41.965Z,95.60
2018-11-06T22:00:14.066Z,95.60
2018-11-06T22:02:42.664Z,95.40
2018-11-06T22:05:12.496Z,95.10
2018-11-06T22:07:41.750Z,94.90
2018-11-06T22:10:12.890Z,94.90
2018-11-06T22:12:43.556Z,94.90
2018-11-06T22:15:13.324Z,95.10
2018-11-06T22:17:42.138Z,95.20
2018-11-06T22:20:12.940Z,95.20
2018-11-06T22:22:42.379Z,95.40
2018-11-06T22:25:10.928Z,95.50
2018-11-06T22:27:39.643Z,95.40
2018-11-06T22:30:11.339Z,95.50
2018-11-06T22:32:40.524Z,95.50
2018-11-06T22:35:10.432Z,95.50
2018-11-06T22:37:38.989Z,95.70
2018-11-06T22:40:08.243Z,95.40
2018-11-06T22:42:37.545Z,95.20
2018-11-06T22:45:07.939Z,95.10
2018-11-06T22:47:36.469Z,95.10
2018-11-06T22:50:06.087Z,95.10
2018-11-06T22:52:34.658Z,95.10
2018-11-06T22:55:03.277Z,95.20
2018-11-06T22:57:31.853Z,95.60
2018-11-06T23:00:00.407Z,95.70
2018-11-06T23:02:29.021Z,95.90
2018-11-06T23:04:57.723Z,96.00
2018-11-06T23:07:31.638Z,96.00
2018-11-06T23:10:00.252Z,95.70
2018-11-06T23:12:28.852Z,95.50
2018-11-06T23:14:57.434Z,95.50
2018-11-06T23:17:26.020Z,95.30
2018-11-06T23:19:54.602Z,95.20
2018-11-06T23:22:23.136Z,95.10
2018-11-06T23:24:51.771Z,95.50
2018-11-06T23:27:20.412Z,95.40
2018-11-06T23:29:49.013Z,95.20
2018-11-06T23:32:17.984Z,94.90
2018-11-06T23:34:46.568Z,94.80
2018-11-06T23:37:15.101Z,94.60
2018-11-06T23:39:43.668Z,94.50
2018-11-06T23:42:12.207Z,94.50
2018-11-06T23:44:41.105Z,94.40
2018-11-06T23:47:09.647Z,94.50
2018-11-06T23:49:38.269Z,94.50
2018-11-06T23:52:06.818Z,94.50
2018-11-06T23:54:35.477Z,94.60
2018-11-06T23:57:04.065Z,94.50
2018-11-06T23:59:32.678Z,94.50
